sensor_id;sensor_type;location;lat;lon;timestamp;P1;durP1;ratioP1;P2;durP2;ratioP2
27977;SDS011;15314;49.248;6.968;2024-03-02T00:00:52;9.32;;;8.82;;
27977;SDS011;15314;49.248;6.968;2024-03-02T00:02:11;10.00;;;9.40;;
27977;SDS011;15314;49.248;6.968;2024-03-02T00:03:31;10.18;;;9.57;;
27977;SDS011;15314;49.248;6.968;2024-03-02T00:04:50;10.52;;;9.63;;
27977;SDS011;15314;49.248;6.968;2024-03-02T00:06:10;9.98;;;9.27;;
27977;SDS011;15314;49.248;6.968;2024-03-02T00:07:29;9.45;;;8.85;;
27977;SDS011;15314;49.248;6.968;2024-03-02T00:08:50;9.23;;;8.63;;
27977;SDS011;15314;49.248;6.968;2024-03-02T00:10:09;9.90;;;9.20;;
27977;SDS011;15314;49.248;6.968;2024-03-02T00:11:29;9.90;;;9.30;;
27977;SDS011;15314;49.248;6.968;2024-03-02T00:12:49;8.68;;;8.18;;
27977;SDS011;15314;49.248;6.968;2024-03-02T00:14:08;9.27;;;8.77;;
27977;SDS011;15314;49.248;6.968;2024-03-02T00:15:46;9.35;;;8.65;;
27977;SDS011;15314;49.248;6.968;2024-03-02T00:17:08;9.27;;;8.73;;
27977;SDS011;15314;49.248;6.968;2024-03-02T00:18:41;9.38;;;8.88;;
27977;SDS011;15314;49.248;6.968;2024-03-02T00:20:01;9.80;;;9.20;;
27977;SDS011;15314;49.248;6.968;2024-03-02T00:21:24;9.50;;;9.00;;
27977;SDS011;15314;49.248;6.968;2024-03-02T00:22:46;8.77;;;8.38;;
27977;SDS011;15314;49.248;6.968;2024-03-02T00:25:47;9.07;;;8.45;;
27977;SDS011;15314;49.248;6.968;2024-03-02T00:27:07;9.90;;;9.20;;
27977;SDS011;15314;49.248;6.968;2024-03-02T00:28:31;8.80;;;8.40;;
27977;SDS011;15314;49.248;6.968;2024-03-02T00:29:54;9.35;;;8.65;;
27977;SDS011;15314;49.248;6.968;2024-03-02T00:31:15;9.80;;;9.10;;
27977;SDS011;15314;49.248;6.968;2024-03-02T00:32:38;9.85;;;9.35;;
27977;SDS011;15314;49.248;6.968;2024-03-02T00:33:57;9.95;;;9.35;;
27977;SDS011;15314;49.248;6.968;2024-03-02T00:35:20;10.48;;;9.77;;
27977;SDS011;15314;49.248;6.968;2024-03-02T00:36:41;9.90;;;9.30;;
27977;SDS011;15314;49.248;6.968;2024-03-02T00:38:04;10.15;;;9.55;;
27977;SDS011;15314;49.248;6.968;2024-03-02T00:39:27;9.40;;;8.80;;
27977;SDS011;15314;49.248;6.968;2024-03-02T00:40:46;9.80;;;9.20;;
27977;SDS011;15314;49.248;6.968;2024-03-02T00:42:05;9.93;;;9.32;;
27977;SDS011;15314;49.248;6.968;2024-03-02T00:45:10;9.65;;;9.15;;
27977;SDS011;15314;49.248;6.968;2024-03-02T00:46:33;9.73;;;9.13;;
27977;SDS011;15314;49.248;6.968;2024-03-02T00:47:56;9.25;;;8.73;;
27977;SDS011;15314;49.248;6.968;2024-03-02T00:49:20;10.05;;;9.43;;
27977;SDS011;15314;49.248;6.968;2024-03-02T00:50:41;9.45;;;8.88;;
27977;SDS011;15314;49.248;6.968;2024-03-02T00:52:00;9.43;;;8.82;;
27977;SDS011;15314;49.248;6.968;2024-03-02T00:53:21;9.82;;;9.02;;
27977;SDS011;15314;49.248;6.968;2024-03-02T00:54:43;9.70;;;9.13;;
27977;SDS011;15314;49.248;6.968;2024-03-02T00:56:03;9.30;;;8.77;;
27977;SDS011;15314;49.248;6.968;2024-03-02T00:57:23;9.68;;;9.18;;
27977;SDS011;15314;49.248;6.968;2024-03-02T00:58:44;9.70;;;9.10;;
27977;SDS011;15314;49.248;6.968;2024-03-02T01:00:03;8.88;;;8.38;;
27977;SDS011;15314;49.248;6.968;2024-03-02T01:01:27;9.60;;;9.00;;
27977;SDS011;15314;49.248;6.968;2024-03-02T01:02:46;8.95;;;8.45;;
27977;SDS011;15314;49.248;6.968;2024-03-02T01:04:05;10.40;;;9.70;;
27977;SDS011;15314;49.248;6.968;2024-03-02T01:05:24;10.18;;;9.52;;
27977;SDS011;15314;49.248;6.968;2024-03-02T01:06:43;9.73;;;9.23;;
27977;SDS011;15314;49.248;6.968;2024-03-02T01:08:02;9.43;;;8.93;;
27977;SDS011;15314;49.248;6.968;2024-03-02T01:09:22;9.27;;;8.73;;
27977;SDS011;15314;49.248;6.968;2024-03-02T01:10:41;10.02;;;9.32;;
27977;SDS011;15314;49.248;6.968;2024-03-02T01:12:00;10.05;;;9.27;;
27977;SDS011;15314;49.248;6.968;2024-03-02T01:13:20;9.68;;;9.07;;
27977;SDS011;15314;49.248;6.968;2024-03-02T01:16:00;9.98;;;9.38;;
27977;SDS011;15314;49.248;6.968;2024-03-02T01:17:19;9.98;;;9.38;;
27977;SDS011;15314;49.248;6.968;2024-03-02T01:18:38;9.80;;;9.15;;
27977;SDS011;15314;49.248;6.968;2024-03-02T01:19:57;9.88;;;9.18;;
27977;SDS011;15314;49.248;6.968;2024-03-02T01:21:17;10.32;;;9.60;;
27977;SDS011;15314;49.248;6.968;2024-03-02T01:22:36;9.52;;;8.82;;
27977;SDS011;15314;49.248;6.968;2024-03-02T01:23:55;9.15;;;8.73;;
27977;SDS011;15314;49.248;6.968;2024-03-02T01:25:15;9.50;;;8.93;;
27977;SDS011;15314;49.248;6.968;2024-03-02T01:26:34;9.90;;;9.30;;
27977;SDS011;15314;49.248;6.968;2024-03-02T01:27:53;9.55;;;8.95;;
27977;SDS011;15314;49.248;6.968;2024-03-02T01:29:12;9.43;;;8.82;;
27977;SDS011;15314;49.248;6.968;2024-03-02T01:30:31;9.38;;;8.77;;
27977;SDS011;15314;49.248;6.968;2024-03-02T01:31:50;9.00;;;8.50;;
27977;SDS011;15314;49.248;6.968;2024-03-02T01:33:12;8.63;;;8.15;;
27977;SDS011;15314;49.248;6.968;2024-03-02T01:34:31;9.20;;;8.70;;
27977;SDS011;15314;49.248;6.968;2024-03-02T01:35:50;9.48;;;8.88;;
27977;SDS011;15314;49.248;6.968;2024-03-02T01:37:10;9.40;;;8.73;;
27977;SDS011;15314;49.248;6.968;2024-03-02T01:38:28;9.52;;;8.80;;
27977;SDS011;15314;49.248;6.968;2024-03-02T01:39:47;9.07;;;8.57;;
27977;SDS011;15314;49.248;6.968;2024-03-02T01:41:06;8.95;;;8.55;;
27977;SDS011;15314;49.248;6.968;2024-03-02T01:42:26;9.52;;;8.93;;
27977;SDS011;15314;49.248;6.968;2024-03-02T01:43:45;9.18;;;8.63;;
27977;SDS011;15314;49.248;6.968;2024-03-02T01:45:08;9.23;;;8.73;;
27977;SDS011;15314;49.248;6.968;2024-03-02T01:46:27;9.18;;;8.70;;
27977;SDS011;15314;49.248;6.968;2024-03-02T01:47:47;8.57;;;8.07;;
27977;SDS011;15314;49.248;6.968;2024-03-02T01:49:06;9.13;;;8.63;;
27977;SDS011;15314;49.248;6.968;2024-03-02T01:50:29;9.40;;;8.90;;
27977;SDS011;15314;49.248;6.968;2024-03-02T01:51:50;9.98;;;9.38;;
27977;SDS011;15314;49.248;6.968;2024-03-02T01:53:10;9.27;;;8.68;;
27977;SDS011;15314;49.248;6.968;2024-03-02T01:54:29;9.40;;;8.70;;
27977;SDS011;15314;49.248;6.968;2024-03-02T01:55:49;9.63;;;9.00;;
27977;SDS011;15314;49.248;6.968;2024-03-02T01:57:08;9.48;;;8.77;;
27977;SDS011;15314;49.248;6.968;2024-03-02T01:58:27;8.85;;;8.38;;
27977;SDS011;15314;49.248;6.968;2024-03-02T01:59:46;9.90;;;9.38;;
27977;SDS011;15314;49.248;6.968;2024-03-02T02:01:09;9.55;;;8.90;;
27977;SDS011;15314;49.248;6.968;2024-03-02T02:02:29;9.15;;;8.70;;
27977;SDS011;15314;49.248;6.968;2024-03-02T02:03:48;8.82;;;8.32;;
27977;SDS011;15314;49.248;6.968;2024-03-02T02:05:07;9.30;;;8.77;;
27977;SDS011;15314;49.248;6.968;2024-03-02T02:06:26;8.70;;;8.27;;
27977;SDS011;15314;49.248;6.968;2024-03-02T02:07:46;9.38;;;8.80;;
27977;SDS011;15314;49.248;6.968;2024-03-02T02:09:05;8.48;;;8.00;;
27977;SDS011;15314;49.248;6.968;2024-03-02T02:10:26;9.15;;;8.68;;
27977;SDS011;15314;49.248;6.968;2024-03-02T02:11:45;9.27;;;8.68;;
27977;SDS011;15314;49.248;6.968;2024-03-02T02:13:05;8.88;;;8.38;;
27977;SDS011;15314;49.248;6.968;2024-03-02T02:15:45;9.02;;;8.60;;
27977;SDS011;15314;49.248;6.968;2024-03-02T02:17:04;9.25;;;8.75;;
27977;SDS011;15314;49.248;6.968;2024-03-02T02:18:24;8.63;;;8.23;;
27977;SDS011;15314;49.248;6.968;2024-03-02T02:19:43;8.70;;;8.20;;
27977;SDS011;15314;49.248;6.968;2024-03-02T02:21:02;9.00;;;8.50;;
27977;SDS011;15314;49.248;6.968;2024-03-02T02:22:22;8.88;;;8.38;;
27977;SDS011;15314;49.248;6.968;2024-03-02T02:23:41;8.75;;;8.25;;
27977;SDS011;15314;49.248;6.968;2024-03-02T02:25:04;9.23;;;8.73;;
27977;SDS011;15314;49.248;6.968;2024-03-02T02:26:24;8.30;;;7.90;;
27977;SDS011;15314;49.248;6.968;2024-03-02T02:27:43;8.90;;;8.50;;
27977;SDS011;15314;49.248;6.968;2024-03-02T02:29:02;9.48;;;8.85;;
27977;SDS011;15314;49.248;6.968;2024-03-02T02:30:23;8.88;;;8.38;;
27977;SDS011;15314;49.248;6.968;2024-03-02T02:31:44;9.00;;;8.50;;
27977;SDS011;15314;49.248;6.968;2024-03-02T02:33:03;8.90;;;8.18;;
27977;SDS011;15314;49.248;6.968;2024-03-02T02:34:23;8.40;;;7.93;;
27977;SDS011;15314;49.248;6.968;2024-03-02T02:35:42;9.05;;;8.55;;
27977;SDS011;15314;49.248;6.968;2024-03-02T02:37:01;8.88;;;8.27;;
27977;SDS011;15314;49.248;6.968;2024-03-02T02:38:20;8.75;;;8.25;;
27977;SDS011;15314;49.248;6.968;2024-03-02T02:39:39;8.43;;;7.95;;
27977;SDS011;15314;49.248;6.968;2024-03-02T02:40:58;8.90;;;8.48;;
27977;SDS011;15314;49.248;6.968;2024-03-02T02:42:17;8.77;;;8.38;;
27977;SDS011;15314;49.248;6.968;2024-03-02T02:43:37;8.90;;;8.50;;
27977;SDS011;15314;49.248;6.968;2024-03-02T02:44:58;9.68;;;9.07;;
27977;SDS011;15314;49.248;6.968;2024-03-02T02:46:17;9.30;;;8.80;;
27977;SDS011;15314;49.248;6.968;2024-03-02T02:47:36;8.70;;;8.20;;
27977;SDS011;15314;49.248;6.968;2024-03-02T02:48:55;8.55;;;8.15;;
27977;SDS011;15314;49.248;6.968;2024-03-02T02:50:14;9.20;;;8.70;;
27977;SDS011;15314;49.248;6.968;2024-03-02T02:51:34;8.90;;;8.40;;
27977;SDS011;15314;49.248;6.968;2024-03-02T02:52:53;9.52;;;8.93;;
27977;SDS011;15314;49.248;6.968;2024-03-02T02:54:12;9.60;;;8.55;;
27977;SDS011;15314;49.248;6.968;2024-03-02T02:55:31;9.20;;;8.70;;
27977;SDS011;15314;49.248;6.968;2024-03-02T02:56:50;9.27;;;8.77;;
27977;SDS011;15314;49.248;6.968;2024-03-02T02:58:09;9.55;;;9.02;;
27977;SDS011;15314;49.248;6.968;2024-03-02T02:59:29;9.05;;;8.55;;
27977;SDS011;15314;49.248;6.968;2024-03-02T03:00:48;9.10;;;8.55;;
27977;SDS011;15314;49.248;6.968;2024-03-02T03:02:08;8.63;;;8.13;;
27977;SDS011;15314;49.248;6.968;2024-03-02T03:03:27;8.60;;;8.20;;
27977;SDS011;15314;49.248;6.968;2024-03-02T03:04:46;9.25;;;8.48;;
27977;SDS011;15314;49.248;6.968;2024-03-02T03:06:05;9.30;;;8.80;;
27977;SDS011;15314;49.248;6.968;2024-03-02T03:07:24;9.10;;;8.40;;
27977;SDS011;15314;49.248;6.968;2024-03-02T03:08:43;9.50;;;8.93;;
27977;SDS011;15314;49.248;6.968;2024-03-02T03:10:03;8.80;;;8.25;;
27977;SDS011;15314;49.248;6.968;2024-03-02T03:11:22;9.13;;;8.63;;
27977;SDS011;15314;49.248;6.968;2024-03-02T03:12:43;9.18;;;8.68;;
27977;SDS011;15314;49.248;6.968;2024-03-02T03:14:02;8.32;;;7.93;;
27977;SDS011;15314;49.248;6.968;2024-03-02T03:15:23;8.75;;;8.27;;
27977;SDS011;15314;49.248;6.968;2024-03-02T03:16:43;8.60;;;8.20;;
27977;SDS011;15314;49.248;6.968;2024-03-02T03:18:04;8.88;;;8.27;;
27977;SDS011;15314;49.248;6.968;2024-03-02T03:19:24;8.40;;;8.00;;
27977;SDS011;15314;49.248;6.968;2024-03-02T03:20:43;8.77;;;8.38;;
27977;SDS011;15314;49.248;6.968;2024-03-02T03:22:02;8.88;;;8.38;;
27977;SDS011;15314;49.248;6.968;2024-03-02T03:23:22;9.38;;;8.90;;
27977;SDS011;15314;49.248;6.968;2024-03-02T03:24:41;8.95;;;8.45;;
27977;SDS011;15314;49.248;6.968;2024-03-02T03:26:00;8.60;;;8.00;;
27977;SDS011;15314;49.248;6.968;2024-03-02T03:27:19;8.80;;;8.40;;
27977;SDS011;15314;49.248;6.968;2024-03-02T03:28:38;8.30;;;7.90;;
27977;SDS011;15314;49.248;6.968;2024-03-02T03:29:57;8.55;;;8.15;;
27977;SDS011;15314;49.248;6.968;2024-03-02T03:31:17;8.75;;;8.27;;
27977;SDS011;15314;49.248;6.968;2024-03-02T03:32:36;9.20;;;8.50;;
27977;SDS011;15314;49.248;6.968;2024-03-02T03:33:55;8.70;;;8.30;;
27977;SDS011;15314;49.248;6.968;2024-03-02T03:35:14;8.90;;;8.30;;
27977;SDS011;15314;49.248;6.968;2024-03-02T03:36:34;9.30;;;8.80;;
27977;SDS011;15314;49.248;6.968;2024-03-02T03:37:53;8.48;;;8.07;;
27977;SDS011;15314;49.248;6.968;2024-03-02T03:39:12;8.80;;;8.40;;
27977;SDS011;15314;49.248;6.968;2024-03-02T03:40:32;8.40;;;8.00;;
27977;SDS011;15314;49.248;6.968;2024-03-02T03:41:51;8.80;;;8.30;;
27977;SDS011;15314;49.248;6.968;2024-03-02T03:43:10;8.77;;;8.38;;
27977;SDS011;15314;49.248;6.968;2024-03-02T03:44:29;8.88;;;8.07;;
27977;SDS011;15314;49.248;6.968;2024-03-02T03:45:48;8.60;;;8.10;;
27977;SDS011;15314;49.248;6.968;2024-03-02T03:47:07;8.43;;;8.05;;
27977;SDS011;15314;49.248;6.968;2024-03-02T03:48:26;8.90;;;8.32;;
27977;SDS011;15314;49.248;6.968;2024-03-02T03:49:49;8.88;;;8.38;;
27977;SDS011;15314;49.248;6.968;2024-03-02T03:51:08;8.88;;;8.48;;
27977;SDS011;15314;49.248;6.968;2024-03-02T03:52:27;8.77;;;8.38;;
27977;SDS011;15314;49.248;6.968;2024-03-02T03:53:47;9.13;;;8.50;;
27977;SDS011;15314;49.248;6.968;2024-03-02T03:55:06;8.75;;;8.35;;
27977;SDS011;15314;49.248;6.968;2024-03-02T03:56:25;9.10;;;8.60;;
27977;SDS011;15314;49.248;6.968;2024-03-02T03:57:45;9.15;;;8.55;;
27977;SDS011;15314;49.248;6.968;2024-03-02T03:59:04;9.00;;;8.57;;
27977;SDS011;15314;49.248;6.968;2024-03-02T04:00:23;9.05;;;8.52;;
27977;SDS011;15314;49.248;6.968;2024-03-02T04:01:42;8.35;;;7.90;;
27977;SDS011;15314;49.248;6.968;2024-03-02T04:03:01;8.90;;;8.40;;
27977;SDS011;15314;49.248;6.968;2024-03-02T04:04:20;8.77;;;8.18;;
27977;SDS011;15314;49.248;6.968;2024-03-02T04:05:39;8.65;;;8.15;;
27977;SDS011;15314;49.248;6.968;2024-03-02T04:06:58;8.43;;;8.02;;
27977;SDS011;15314;49.248;6.968;2024-03-02T04:08:17;8.15;;;7.75;;
27977;SDS011;15314;49.248;6.968;2024-03-02T04:09:36;8.25;;;7.85;;
27977;SDS011;15314;49.248;6.968;2024-03-02T04:10:56;8.35;;;7.85;;
27977;SDS011;15314;49.248;6.968;2024-03-02T04:12:15;8.27;;;7.88;;
27977;SDS011;15314;49.248;6.968;2024-03-02T04:13:34;8.07;;;7.57;;
27977;SDS011;15314;49.248;6.968;2024-03-02T04:14:53;8.77;;;8.27;;
27977;SDS011;15314;49.248;6.968;2024-03-02T04:16:12;8.80;;;8.20;;
27977;SDS011;15314;49.248;6.968;2024-03-02T04:17:32;9.18;;;8.55;;
27977;SDS011;15314;49.248;6.968;2024-03-02T04:18:52;8.93;;;8.43;;
27977;SDS011;15314;49.248;6.968;2024-03-02T04:20:11;8.45;;;7.95;;
27977;SDS011;15314;49.248;6.968;2024-03-02T04:21:31;9.15;;;8.38;;
27977;SDS011;15314;49.248;6.968;2024-03-02T04:22:51;8.38;;;7.85;;
27977;SDS011;15314;49.248;6.968;2024-03-02T04:24:10;9.20;;;8.48;;
27977;SDS011;15314;49.248;6.968;2024-03-02T04:25:29;9.23;;;8.52;;
27977;SDS011;15314;49.248;6.968;2024-03-02T04:26:48;8.65;;;8.25;;
27977;SDS011;15314;49.248;6.968;2024-03-02T04:28:07;9.27;;;8.73;;
27977;SDS011;15314;49.248;6.968;2024-03-02T04:29:26;9.45;;;8.85;;
27977;SDS011;15314;49.248;6.968;2024-03-02T04:30:46;9.05;;;8.55;;
27977;SDS011;15314;49.248;6.968;2024-03-02T04:32:05;9.23;;;8.82;;
27977;SDS011;15314;49.248;6.968;2024-03-02T04:33:24;9.00;;;8.55;;
27977;SDS011;15314;49.248;6.968;2024-03-02T04:34:43;8.73;;;8.25;;
27977;SDS011;15314;49.248;6.968;2024-03-02T04:36:02;8.88;;;8.38;;
27977;SDS011;15314;49.248;6.968;2024-03-02T04:37:22;8.77;;;8.18;;
27977;SDS011;15314;49.248;6.968;2024-03-02T04:38:42;9.23;;;8.50;;
27977;SDS011;15314;49.248;6.968;2024-03-02T04:40:01;9.20;;;8.70;;
27977;SDS011;15314;49.248;6.968;2024-03-02T04:41:20;9.15;;;8.48;;
27977;SDS011;15314;49.248;6.968;2024-03-02T04:42:39;9.30;;;8.80;;
27977;SDS011;15314;49.248;6.968;2024-03-02T04:43:59;9.07;;;8.68;;
27977;SDS011;15314;49.248;6.968;2024-03-02T04:45:18;9.18;;;8.60;;
27977;SDS011;15314;49.248;6.968;2024-03-02T04:46:37;9.48;;;8.88;;
27977;SDS011;15314;49.248;6.968;2024-03-02T04:47:56;10.15;;;9.45;;
27977;SDS011;15314;49.248;6.968;2024-03-02T04:49:16;9.70;;;9.20;;
27977;SDS011;15314;49.248;6.968;2024-03-02T04:50:35;9.57;;;9.00;;
27977;SDS011;15314;49.248;6.968;2024-03-02T04:51:54;9.95;;;8.98;;
27977;SDS011;15314;49.248;6.968;2024-03-02T04:53:13;9.77;;;8.82;;
27977;SDS011;15314;49.248;6.968;2024-03-02T04:54:32;9.07;;;8.57;;
27977;SDS011;15314;49.248;6.968;2024-03-02T04:56:12;10.20;;;9.65;;
27977;SDS011;15314;49.248;6.968;2024-03-02T04:57:50;9.95;;;9.15;;
27977;SDS011;15314;49.248;6.968;2024-03-02T04:59:13;9.65;;;9.05;;
27977;SDS011;15314;49.248;6.968;2024-03-02T05:00:32;10.18;;;9.45;;
27977;SDS011;15314;49.248;6.968;2024-03-02T05:01:51;9.88;;;9.18;;
27977;SDS011;15314;49.248;6.968;2024-03-02T05:03:10;9.82;;;9.00;;
27977;SDS011;15314;49.248;6.968;2024-03-02T05:04:29;9.88;;;9.27;;
27977;SDS011;15314;49.248;6.968;2024-03-02T05:05:49;9.32;;;8.82;;
27977;SDS011;15314;49.248;6.968;2024-03-02T05:07:08;9.48;;;8.73;;
27977;SDS011;15314;49.248;6.968;2024-03-02T05:08:27;9.93;;;9.30;;
27977;SDS011;15314;49.248;6.968;2024-03-02T05:09:46;10.13;;;9.43;;
27977;SDS011;15314;49.248;6.968;2024-03-02T05:11:06;9.75;;;9.25;;
27977;SDS011;15314;49.248;6.968;2024-03-02T05:12:44;10.32;;;9.63;;
27977;SDS011;15314;49.248;6.968;2024-03-02T05:14:06;9.70;;;9.27;;
27977;SDS011;15314;49.248;6.968;2024-03-02T05:15:26;10.15;;;9.55;;
27977;SDS011;15314;49.248;6.968;2024-03-02T05:16:45;9.93;;;9.43;;
27977;SDS011;15314;49.248;6.968;2024-03-02T05:18:04;10.82;;;10.00;;
27977;SDS011;15314;49.248;6.968;2024-03-02T05:19:23;9.95;;;9.18;;
27977;SDS011;15314;49.248;6.968;2024-03-02T05:20:43;9.60;;;9.10;;
27977;SDS011;15314;49.248;6.968;2024-03-02T05:22:03;10.38;;;9.70;;
27977;SDS011;15314;49.248;6.968;2024-03-02T05:23:22;9.88;;;9.30;;
27977;SDS011;15314;49.248;6.968;2024-03-02T05:24:43;9.70;;;9.20;;
27977;SDS011;15314;49.248;6.968;2024-03-02T05:26:02;9.30;;;8.88;;
27977;SDS011;15314;49.248;6.968;2024-03-02T05:27:21;9.38;;;8.88;;
27977;SDS011;15314;49.248;6.968;2024-03-02T05:28:41;9.70;;;9.10;;
27977;SDS011;15314;49.248;6.968;2024-03-02T05:30:00;9.90;;;9.15;;
27977;SDS011;15314;49.248;6.968;2024-03-02T05:31:20;9.32;;;8.52;;
27977;SDS011;15314;49.248;6.968;2024-03-02T05:32:39;8.88;;;8.18;;
27977;SDS011;15314;49.248;6.968;2024-03-02T05:33:58;9.65;;;8.93;;
27977;SDS011;15314;49.248;6.968;2024-03-02T05:35:18;9.43;;;8.90;;
27977;SDS011;15314;49.248;6.968;2024-03-02T05:36:37;9.75;;;9.15;;
27977;SDS011;15314;49.248;6.968;2024-03-02T05:37:57;9.25;;;8.75;;
27977;SDS011;15314;49.248;6.968;2024-03-02T05:39:17;9.23;;;8.77;;
27977;SDS011;15314;49.248;6.968;2024-03-02T05:40:36;9.52;;;9.00;;
27977;SDS011;15314;49.248;6.968;2024-03-02T05:41:55;9.23;;;8.82;;
27977;SDS011;15314;49.248;6.968;2024-03-02T05:43:14;9.88;;;9.07;;
27977;SDS011;15314;49.248;6.968;2024-03-02T05:44:33;9.38;;;8.88;;
27977;SDS011;15314;49.248;6.968;2024-03-02T05:45:53;9.55;;;9.05;;
27977;SDS011;15314;49.248;6.968;2024-03-02T05:47:12;9.65;;;9.15;;
27977;SDS011;15314;49.248;6.968;2024-03-02T05:48:31;9.57;;;8.98;;
27977;SDS011;15314;49.248;6.968;2024-03-02T05:49:51;9.30;;;8.80;;
27977;SDS011;15314;49.248;6.968;2024-03-02T05:51:11;9.38;;;8.77;;
27977;SDS011;15314;49.248;6.968;2024-03-02T05:52:30;9.20;;;8.63;;
27977;SDS011;15314;49.248;6.968;2024-03-02T05:53:49;9.32;;;8.80;;
27977;SDS011;15314;49.248;6.968;2024-03-02T05:55:09;9.65;;;9.05;;
27977;SDS011;15314;49.248;6.968;2024-03-02T05:56:28;9.45;;;8.95;;
27977;SDS011;15314;49.248;6.968;2024-03-02T05:57:47;9.48;;;8.70;;
27977;SDS011;15314;49.248;6.968;2024-03-02T05:59:17;9.20;;;8.80;;
27977;SDS011;15314;49.248;6.968;2024-03-02T06:00:37;9.30;;;8.73;;
27977;SDS011;15314;49.248;6.968;2024-03-02T06:01:55;9.07;;;8.40;;
27977;SDS011;15314;49.248;6.968;2024-03-02T06:03:15;9.30;;;8.80;;
27977;SDS011;15314;49.248;6.968;2024-03-02T06:04:34;8.95;;;8.35;;
27977;SDS011;15314;49.248;6.968;2024-03-02T06:05:53;9.13;;;8.60;;
27977;SDS011;15314;49.248;6.968;2024-03-02T06:07:12;9.60;;;8.82;;
27977;SDS011;15314;49.248;6.968;2024-03-02T06:08:31;8.77;;;8.38;;
27977;SDS011;15314;49.248;6.968;2024-03-02T06:09:50;9.00;;;8.50;;
27977;SDS011;15314;49.248;6.968;2024-03-02T06:11:11;9.52;;;8.88;;
27977;SDS011;15314;49.248;6.968;2024-03-02T06:12:31;9.15;;;8.63;;
27977;SDS011;15314;49.248;6.968;2024-03-02T06:13:51;9.05;;;8.55;;
27977;SDS011;15314;49.248;6.968;2024-03-02T06:15:10;9.63;;;8.80;;
27977;SDS011;15314;49.248;6.968;2024-03-02T06:16:29;9.05;;;8.55;;
27977;SDS011;15314;49.248;6.968;2024-03-02T06:17:49;8.77;;;8.27;;
27977;SDS011;15314;49.248;6.968;2024-03-02T06:19:08;8.65;;;8.25;;
27977;SDS011;15314;49.248;6.968;2024-03-02T06:20:26;8.82;;;8.32;;
27977;SDS011;15314;49.248;6.968;2024-03-02T06:21:45;9.05;;;8.48;;
27977;SDS011;15314;49.248;6.968;2024-03-02T06:23:04;8.80;;;8.27;;
27977;SDS011;15314;49.248;6.968;2024-03-02T06:24:24;8.50;;;8.05;;
27977;SDS011;15314;49.248;6.968;2024-03-02T06:25:45;8.68;;;8.18;;
27977;SDS011;15314;49.248;6.968;2024-03-02T06:27:05;9.05;;;8.45;;
27977;SDS011;15314;49.248;6.968;2024-03-02T06:28:24;8.98;;;8.38;;
27977;SDS011;15314;49.248;6.968;2024-03-02T06:29:43;9.25;;;8.68;;
27977;SDS011;15314;49.248;6.968;2024-03-02T06:31:02;9.18;;;8.52;;
27977;SDS011;15314;49.248;6.968;2024-03-02T06:32:22;8.80;;;8.20;;
27977;SDS011;15314;49.248;6.968;2024-03-02T06:33:43;8.35;;;7.95;;
27977;SDS011;15314;49.248;6.968;2024-03-02T06:35:02;8.50;;;8.00;;
27977;SDS011;15314;49.248;6.968;2024-03-02T06:36:23;8.98;;;8.48;;
27977;SDS011;15314;49.248;6.968;2024-03-02T06:37:42;9.15;;;8.52;;
27977;SDS011;15314;49.248;6.968;2024-03-02T06:39:01;8.90;;;8.40;;
27977;SDS011;15314;49.248;6.968;2024-03-02T06:40:21;8.77;;;8.38;;
27977;SDS011;15314;49.248;6.968;2024-03-02T06:41:40;9.27;;;8.68;;
27977;SDS011;15314;49.248;6.968;2024-03-02T06:43:01;9.52;;;9.02;;
27977;SDS011;15314;49.248;6.968;2024-03-02T06:44:20;8.88;;;8.43;;
27977;SDS011;15314;49.248;6.968;2024-03-02T06:45:40;9.40;;;8.90;;
27977;SDS011;15314;49.248;6.968;2024-03-02T06:46:59;9.65;;;9.23;;
27977;SDS011;15314;49.248;6.968;2024-03-02T06:48:18;9.02;;;8.52;;
27977;SDS011;15314;49.248;6.968;2024-03-02T06:49:41;9.63;;;8.93;;
27977;SDS011;15314;49.248;6.968;2024-03-02T06:51:01;8.70;;;8.25;;
27977;SDS011;15314;49.248;6.968;2024-03-02T06:52:20;9.55;;;8.88;;
27977;SDS011;15314;49.248;6.968;2024-03-02T06:53:42;9.07;;;8.48;;
27977;SDS011;15314;49.248;6.968;2024-03-02T06:55:02;9.88;;;9.25;;
27977;SDS011;15314;49.248;6.968;2024-03-02T06:56:22;9.18;;;8.57;;
27977;SDS011;15314;49.248;6.968;2024-03-02T06:57:42;9.27;;;8.68;;
27977;SDS011;15314;49.248;6.968;2024-03-02T06:59:01;9.10;;;8.70;;
27977;SDS011;15314;49.248;6.968;2024-03-02T07:00:20;9.13;;;8.52;;
27977;SDS011;15314;49.248;6.968;2024-03-02T07:01:39;9.52;;;9.02;;
27977;SDS011;15314;49.248;6.968;2024-03-02T07:02:59;9.27;;;8.65;;
27977;SDS011;15314;49.248;6.968;2024-03-02T07:04:18;9.13;;;8.63;;
27977;SDS011;15314;49.248;6.968;2024-03-02T07:05:37;8.95;;;8.45;;
27977;SDS011;15314;49.248;6.968;2024-03-02T07:06:56;9.20;;;8.50;;
27977;SDS011;15314;49.248;6.968;2024-03-02T07:08:15;9.35;;;8.75;;
27977;SDS011;15314;49.248;6.968;2024-03-02T07:09:35;9.70;;;9.10;;
27977;SDS011;15314;49.248;6.968;2024-03-02T07:10:54;9.98;;;9.15;;
27977;SDS011;15314;49.248;6.968;2024-03-02T07:12:13;9.68;;;9.18;;
27977;SDS011;15314;49.248;6.968;2024-03-02T07:13:33;10.30;;;9.60;;
27977;SDS011;15314;49.248;6.968;2024-03-02T07:14:52;10.50;;;9.80;;
27977;SDS011;15314;49.248;6.968;2024-03-02T07:16:29;10.00;;;9.32;;
27977;SDS011;15314;49.248;6.968;2024-03-02T07:17:51;13.32;;;12.32;;
27977;SDS011;15314;49.248;6.968;2024-03-02T07:19:10;11.15;;;10.40;;
27977;SDS011;15314;49.248;6.968;2024-03-02T07:20:29;10.15;;;9.45;;
27977;SDS011;15314;49.248;6.968;2024-03-02T07:21:48;9.70;;;9.20;;
27977;SDS011;15314;49.248;6.968;2024-03-02T07:23:08;10.45;;;9.82;;
27977;SDS011;15314;49.248;6.968;2024-03-02T07:24:28;10.60;;;9.98;;
27977;SDS011;15314;49.248;6.968;2024-03-02T07:25:47;10.75;;;10.02;;
27977;SDS011;15314;49.248;6.968;2024-03-02T07:27:06;11.25;;;10.50;;
27977;SDS011;15314;49.248;6.968;2024-03-02T07:28:26;10.82;;;10.02;;
27977;SDS011;15314;49.248;6.968;2024-03-02T07:29:45;11.32;;;10.63;;
27977;SDS011;15314;49.248;6.968;2024-03-02T07:31:04;10.93;;;10.23;;
27977;SDS011;15314;49.248;6.968;2024-03-02T07:32:24;11.63;;;10.98;;
27977;SDS011;15314;49.248;6.968;2024-03-02T07:33:46;11.23;;;10.52;;
27977;SDS011;15314;49.248;6.968;2024-03-02T07:35:05;11.38;;;10.35;;
27977;SDS011;15314;49.248;6.968;2024-03-02T07:36:25;12.27;;;11.13;;
27977;SDS011;15314;49.248;6.968;2024-03-02T07:37:44;11.90;;;11.02;;
27977;SDS011;15314;49.248;6.968;2024-03-02T07:39:03;11.63;;;10.82;;
27977;SDS011;15314;49.248;6.968;2024-03-02T07:40:23;11.05;;;10.25;;
27977;SDS011;15314;49.248;6.968;2024-03-02T07:41:42;11.73;;;11.05;;
27977;SDS011;15314;49.248;6.968;2024-03-02T07:43:03;11.52;;;10.75;;
27977;SDS011;15314;49.248;6.968;2024-03-02T07:44:23;11.30;;;10.65;;
27977;SDS011;15314;49.248;6.968;2024-03-02T07:45:43;10.93;;;10.32;;
27977;SDS011;15314;49.248;6.968;2024-03-02T07:47:02;11.68;;;10.50;;
27977;SDS011;15314;49.248;6.968;2024-03-02T07:48:22;10.82;;;10.18;;
27977;SDS011;15314;49.248;6.968;2024-03-02T07:49:42;10.75;;;9.95;;
27977;SDS011;15314;49.248;6.968;2024-03-02T07:51:03;10.43;;;9.90;;
27977;SDS011;15314;49.248;6.968;2024-03-02T07:52:22;13.05;;;11.95;;
27977;SDS011;15314;49.248;6.968;2024-03-02T07:53:41;10.88;;;10.00;;
27977;SDS011;15314;49.248;6.968;2024-03-02T07:55:00;12.15;;;11.30;;
27977;SDS011;15314;49.248;6.968;2024-03-02T07:56:19;10.90;;;10.20;;
27977;SDS011;15314;49.248;6.968;2024-03-02T07:59:03;10.45;;;9.95;;
27977;SDS011;15314;49.248;6.968;2024-03-02T08:00:23;10.77;;;10.15;;
27977;SDS011;15314;49.248;6.968;2024-03-02T08:03:03;11.25;;;10.57;;
27977;SDS011;15314;49.248;6.968;2024-03-02T08:04:23;11.38;;;10.65;;
27977;SDS011;15314;49.248;6.968;2024-03-02T08:05:43;10.70;;;10.00;;
27977;SDS011;15314;49.248;6.968;2024-03-02T08:07:03;10.45;;;9.75;;
27977;SDS011;15314;49.248;6.968;2024-03-02T08:08:23;9.93;;;9.50;;
27977;SDS011;15314;49.248;6.968;2024-03-02T08:09:42;10.50;;;9.80;;